Flight Track Log - Related Links

Times and Time Zones

All times are in EDT time to prevent confusion due to time zone crossing. See the RPA4886 flight status page for this flight to view local times or setup timezone preferences in your user account.

Time Position Orientation Groundspeed Altitude Reporting Facility
EDT Latitude Longitude Course Direction KTS MPH feet Rate Location/Type
Fri 05:44:51 PM 38.9333 -77.5000 North 221 254 2,400  Level Potomac TRACON
Fri 05:45:52 PM 38.9667 -77.5667 303° West 233 268 4,600 2,182 Climbing Potomac TRACON
Fri 05:46:52 PM 39.0167 -77.6167 322° Northwest 239 275 6,800 2,097 Climbing Potomac TRACON
Fri 05:47:00 PM 39.3103 -77.4500 North  Level FlightAware Approximate
Fri 05:47:35 PM 39.0608 -77.6314 345° North 231 266 8,200  Level Washington Center
Fri 05:48:00 PM 39.4045 -77.4500 North  Level FlightAware Approximate
Fri 05:48:36 PM 39.1239 -77.6064 17° North 236 272 10,500  Level Washington Center
Fri 05:49:00 PM 39.4987 -77.4500 North  Level FlightAware Approximate
Fri 05:49:37 PM 39.1886 -77.5894 11° North 231 266 12,500  Level Washington Center
Fri 05:50:00 PM 39.5930 -77.4500 North  Level FlightAware Approximate
Fri 05:50:37 PM 39.2536 -77.5697 13° North 231 266 14,400  Level Washington Center
Fri 05:51:38 PM 39.3164 -77.5500 14° North 231 266 16,000 1,104 Climbing Washington Center
Fri 05:53:58 PM 39.4728 -77.5061 12° North 257 296 18,100 960 Climbing New York Center
Fri 05:54:58 PM 39.5450 -77.4861 12° North 257 296 19,200 1,140 Climbing New York Center
Fri 05:55:59 PM 39.6131 -77.4628 15° North 257 296 20,400 893 Climbing New York Center
Fri 05:56:59 PM 39.6864 -77.4536 North 252 290 21,000 305 Climbing New York Center
Fri 05:57:57 PM 39.7678 -77.4533 360° North 266 306 21,000  Level New York Center
Fri 05:58:58 PM 39.8575 -77.4536 360° North 298 343 21,000  Level New York Center
Fri 05:59:58 PM 39.9494 -77.4517 North 317 365 21,000  Level New York Center
Fri 06:00:58 PM 40.0414 -77.4469 North 330 380 21,000  Level New York Center
Fri 06:01:59 PM 40.1456 -77.4486 359° North 330 380 21,000  Level New York Center
Fri 06:02:57 PM 40.2336 -77.4028 22° Northeast 330 380 21,000  Level New York Center
Fri 06:03:58 PM 40.3139 -77.3478 28° Northeast 324 373 21,000  Level New York Center
Fri 06:04:58 PM 40.3981 -77.2958 25° Northeast 324 373 21,000  Level New York Center
Fri 06:05:57 PM 40.4822 -77.2411 26° Northeast 329 379 21,000  Level New York Center
Fri 06:06:57 PM 40.5686 -77.1861 26° Northeast 335 386 21,000  Level New York Center
Fri 06:07:58 PM 40.6528 -77.1339 25° Northeast 335 386 21,000  Level New York Center
Fri 06:08:58 PM 40.7369 -77.0786 26° Northeast 335 386 21,000  Level New York Center
Fri 06:09:59 PM 40.8211 -77.0233 26° Northeast 330 380 21,000  Level New York Center
Fri 06:10:59 PM 40.9075 -76.9681 26° Northeast 330 380 21,000  Level New York Center
Fri 06:11:58 PM 40.9917 -76.9153 25° Northeast 330 380 21,000  Level New York Center
Fri 06:12:58 PM 41.0758 -76.8569 28° Northeast 330 380 21,000  Level New York Center
Fri 06:13:59 PM 41.1597 -76.8064 24° Northeast 330 380 21,000  Level New York Center
Fri 06:14:57 PM 41.2439 -76.7478 28° Northeast 330 380 21,000  Level New York Center
Fri 06:15:57 PM 41.3278 -76.6944 26° Northeast 330 380 21,000  Level New York Center
Fri 06:16:58 PM 41.4119 -76.6381 27° Northeast 330 380 21,000  Level New York Center
Fri 06:17:58 PM 41.4981 -76.5819 26° Northeast 330 380 21,000  Level New York Center
Fri 06:18:59 PM 41.5761 -76.5167 32° Northeast 330 380 21,000  Level New York Center
Fri 06:19:57 PM 41.6317 -76.4408 46° Northeast 330 380 21,000  Level New York Center
Fri 06:20:58 PM 41.7011 -76.3383 48° Northeast 330 380 21,000  Level New York Center
Fri 06:21:56 PM 41.7681 -76.2467 46° Northeast 336 387 21,000  Level New York Center
Fri 06:22:58 PM 41.8325 -76.1547 47° Northeast 336 387 21,000  Level New York Center
Fri 06:23:58 PM 41.8950 -76.0622 48° Northeast 336 387 21,000  Level New York Center
Fri 06:25:56 PM 42.0272 -75.8753 46° Northeast 335 386 21,000  Level Boston Center
Fri 06:26:56 PM 42.0906 -75.7836 47° Northeast 335 386 21,000  Level Boston Center
Fri 06:27:56 PM 42.1558 -75.6919 46° Northeast 335 386 21,000 -250 Level Boston Center
Fri 06:28:56 PM 42.2128 -75.5911 53° Northeast 335 386 20,500 -950 Descending Boston Center
Fri 06:29:56 PM 42.2472 -75.4750 68° East 329 379 19,100 -1,300 Descending Boston Center
Fri 06:30:56 PM 42.2747 -75.3808 68° East 329 379 17,900 -1,350 Descending Boston Center
Fri 06:31:56 PM 42.3156 -75.2481 67° East 323 372 16,400 -1,500 Descending Boston Center
Fri 06:32:56 PM 42.3494 -75.1400 67° East 318 366 14,900 -1,500 Descending Boston Center
Fri 06:33:56 PM 42.3856 -75.0261 67° East 318 366 13,400 -1,540 Descending Boston Center
Fri 06:34:49 PM 42.4153 -74.9122 70° East 322 371 12,000 -1,558 Descending Boston Center
Fri 06:35:13 PM 42.4286 -74.8733 65° Northeast 314 361 11,400 -985 Descending Boston Center
Fri 06:35:56 PM 42.4550 -74.7983 64° Northeast 308 354 10,900 -269 Descending Boston Center
Fri 06:36:20 PM 42.4664 -74.7508 72° East 303 349 11,100 100 Climbing Boston Center
Fri 06:36:56 PM 42.4844 -74.6869 69° East 308 354 11,000  Descending Boston Center
Fri 06:37:21 PM 42.4978 -74.6450 67° East 301 346 11,100  Climbing Boston Center
Fri 06:37:56 PM 42.5133 -74.5947 67° East 308 354 11,000  Descending Boston Center
Fri 06:38:22 PM 42.5311 -74.5364 68° East 311 358 11,100 -500 Climbing Boston Center
Fri 06:38:56 PM 42.5531 -74.4750 64° Northeast 308 354 10,500 -1,300 Descending Boston Center
Fri 06:39:22 PM 42.5744 -74.4447 46° Northeast 287 330 9,800 -1,400 Descending Boston Center
Fri 06:39:56 PM 42.5981 -74.4061 50° Northeast 281 323 9,100 -1,475 Descending Boston Center
Fri 06:40:23 PM 42.6239 -74.3589 53° Northeast 275 316 8,300 -1,600 Descending Boston Center
Fri 06:40:56 PM 42.6475 -74.3144 54° Northeast 271 312 7,500 -1,475 Descending Boston Center
Fri 06:41:24 PM 42.6669 -74.2839 49° Northeast 260 299 6,800 -1,400 Descending Boston Center
Fri 06:41:56 PM 42.6861 -74.2478 54° Northeast 260 299 6,100 -1,500 Descending Boston Center
Fri 06:42:24 PM 42.7097 -74.2089 50° Northeast 252 290 5,300 -1,600 Descending Boston Center
Fri 06:42:56 PM 42.7333 -74.1617 56° Northeast 255 293 4,500 -1,475 Descending Boston Center
Fri 06:43:25 PM 42.7506 -74.1308 53° Northeast 249 287 3,800 -1,300 Descending Boston Center
Fri 06:43:56 PM 42.7636 -74.0917 66° East 244 281 3,200 -800 Descending Boston Center
Fri 06:44:25 PM 42.7767 -74.0439 70° East 221 254 3,000 -200 Descending Boston Center
Fri 06:44:56 PM 42.7836 -74.0072 76° East 223 257 3,000  Level Boston Center
Fri 06:45:26 PM 42.7925 -73.9681 73° East 203 234 3,000 -300 Level Boston Center
Fri 06:45:56 PM 42.7992 -73.9369 74° East 206 237 2,700 -600 Descending Boston Center

Login

Don't have an account? Register now (free) for customized features, flight alerts, and more!